createdAt,value
2019-01-23T00:00:54.653Z,24.73
2019-01-23T00:03:24.089Z,25.83
2019-01-23T00:05:53.633Z,22.90
2019-01-23T00:08:23.109Z,25.37
2019-01-23T00:10:52.619Z,24.10
2019-01-23T00:13:22.107Z,26.47
2019-01-23T00:15:51.563Z,24.10
2019-01-23T00:18:21.049Z,23.97
2019-01-23T00:20:50.505Z,23.63
2019-01-23T00:23:20.065Z,23.57
2019-01-23T00:25:49.599Z,23.70
2019-01-23T00:28:19.069Z,23.63
2019-01-23T00:30:48.477Z,23.47
2019-01-23T00:33:17.995Z,23.23
2019-01-23T00:35:47.555Z,23.57
2019-01-23T00:38:17.076Z,23.50
2019-01-23T00:40:46.679Z,24.10
2019-01-23T00:43:16.127Z,23.07
2019-01-23T00:45:45.621Z,23.53
2019-01-23T00:48:15.079Z,22.03
2019-01-23T00:50:44.467Z,22.10
2019-01-23T00:53:13.928Z,23.40
2019-01-23T00:55:43.333Z,25.07
2019-01-23T00:58:12.822Z,22.93
2019-01-23T01:00:42.669Z,22.97
2019-01-23T01:03:12.281Z,22.80
2019-01-23T01:05:41.765Z,22.57
2019-01-23T01:08:11.247Z,23.17
2019-01-23T01:10:40.743Z,23.60
2019-01-23T01:13:10.287Z,23.70
2019-01-23T01:15:39.871Z,23.07
2019-01-23T01:18:09.436Z,24.77
2019-01-23T01:20:39.061Z,23.50
2019-01-23T01:23:08.515Z,25.97
2019-01-23T01:25:37.978Z,25.00
2019-01-23T01:28:07.401Z,24.80
2019-01-23T01:30:36.943Z,23.73
2019-01-23T01:33:06.535Z,25.37
2019-01-23T01:35:36.012Z,23.10
2019-01-23T01:38:05.708Z,24.27
2019-01-23T01:40:35.165Z,24.33
2019-01-23T01:43:04.881Z,23.67
2019-01-23T01:45:34.355Z,22.43
2019-01-23T01:48:03.826Z,25.03
2019-01-23T01:50:33.296Z,22.10
2019-01-23T01:53:02.788Z,24.17
2019-01-23T01:55:32.274Z,22.40
2019-01-23T01:58:01.742Z,23.17
2019-01-23T02:00:31.312Z,21.70
2019-01-23T02:03:00.822Z,21.83
2019-01-23T02:05:30.299Z,21.13
2019-01-23T02:07:59.840Z,23.27
2019-01-23T02:10:29.347Z,21.33
2019-01-23T02:12:58.752Z,21.67
2019-01-23T02:15:28.248Z,21.53
2019-01-23T02:17:57.721Z,21.87
2019-01-23T02:20:27.646Z,22.13
2019-01-23T02:22:57.137Z,20.53
2019-01-23T02:25:26.600Z,20.93
2019-01-23T02:27:56.164Z,21.17
2019-01-23T02:30:25.806Z,21.50
2019-01-23T02:32:55.173Z,19.83
2019-01-23T02:35:24.590Z,20.10
2019-01-23T02:37:54.088Z,19.00
2019-01-23T02:40:23.668Z,19.53
2019-01-23T02:42:53.576Z,19.20
2019-01-23T02:45:23.144Z,20.33
2019-01-23T02:47:53.438Z,19.63
2019-01-23T02:50:22.967Z,19.50
2019-01-23T02:52:52.447Z,19.73
2019-01-23T02:55:21.879Z,20.23
2019-01-23T02:57:51.332Z,20.23
2019-01-23T03:00:20.914Z,19.80
2019-01-23T03:02:50.562Z,19.37
2019-01-23T03:05:20.317Z,20.87
2019-01-23T03:07:49.791Z,20.97
2019-01-23T03:10:20.136Z,22.10
2019-01-23T03:12:49.781Z,21.83
2019-01-23T03:15:19.709Z,21.37
2019-01-23T03:17:49.196Z,21.57
2019-01-23T03:20:19.122Z,22.20
2019-01-23T03:22:48.663Z,21.53
2019-01-23T03:25:18.459Z,22.10
2019-01-23T03:27:47.993Z,22.20
2019-01-23T03:30:21.737Z,22.73
2019-01-23T03:32:51.263Z,21.97
2019-01-23T03:35:22.032Z,24.83
2019-01-23T03:37:51.467Z,24.73
2019-01-23T03:40:21.541Z,22.83
2019-01-23T03:42:51.111Z,24.47
2019-01-23T03:45:20.669Z,23.33
2019-01-23T03:47:50.144Z,24.97
2019-01-23T03:50:20.709Z,23.33
2019-01-23T03:52:50.288Z,23.87
2019-01-23T03:55:19.906Z,24.43
2019-01-23T03:57:49.614Z,25.70
2019-01-23T04:00:20.635Z,24.27
2019-01-23T04:02:52.762Z,24.13
2019-01-23T04:05:22.461Z,23.47
2019-01-23T04:07:51.903Z,24.57
2019-01-23T04:10:21.401Z,22.80
2019-01-23T04:12:50.886Z,24.00
2019-01-23T04:15:20.364Z,23.50
2019-01-23T04:17:49.858Z,24.37
2019-01-23T04:20:21.138Z,22.53
2019-01-23T04:22:50.579Z,24.00
2019-01-23T04:25:20.197Z,23.60
2019-01-23T04:27:49.644Z,22.80
2019-01-23T04:30:21.452Z,22.67
2019-01-23T04:32:51.124Z,23.00
2019-01-23T04:35:20.762Z,22.93
2019-01-23T04:37:50.216Z,21.67
2019-01-23T04:40:19.883Z,23.47
2019-01-23T04:42:49.328Z,22.17
2019-01-23T04:45:18.906Z,21.00
2019-01-23T04:47:48.378Z,20.80
2019-01-23T04:50:18.534Z,22.07
2019-01-23T04:53:06.314Z,22.17
2019-01-23T04:55:37.142Z,21.83
2019-01-23T04:58:06.574Z,21.17
2019-01-23T05:00:36.103Z,21.47
2019-01-23T05:03:05.558Z,21.87
2019-01-23T05:05:34.980Z,23.00
2019-01-23T05:08:04.429Z,21.90
2019-01-23T05:10:33.938Z,21.87
2019-01-23T05:13:03.350Z,22.33
2019-01-23T05:15:32.936Z,21.97
2019-01-23T05:18:02.479Z,23.30
2019-01-23T05:20:31.888Z,23.33
2019-01-23T05:23:01.500Z,21.87
2019-01-23T05:25:31.079Z,23.77
2019-01-23T05:28:00.617Z,23.90
2019-01-23T05:30:30.103Z,24.63
2019-01-23T05:32:59.533Z,24.70
2019-01-23T05:35:28.923Z,24.47
2019-01-23T05:37:58.362Z,26.70
2019-01-23T05:40:27.948Z,26.07
2019-01-23T05:42:57.492Z,26.33
2019-01-23T05:45:26.977Z,24.73
2019-01-23T05:47:56.447Z,26.37
2019-01-23T05:50:25.894Z,25.87
2019-01-23T05:52:55.266Z,25.33
2019-01-23T05:55:24.827Z,25.67
2019-01-23T05:57:54.381Z,26.23
2019-01-23T06:00:24.029Z,25.50
2019-01-23T06:02:53.646Z,25.23
2019-01-23T06:05:23.239Z,26.07
2019-01-23T06:07:52.640Z,26.03
2019-01-23T06:10:22.110Z,25.90
2019-01-23T06:12:51.560Z,27.40
2019-01-23T06:15:21.076Z,27.03
2019-01-23T06:17:50.522Z,27.17
2019-01-23T06:20:21.306Z,25.77
2019-01-23T06:22:50.774Z,26.17
2019-01-23T06:25:20.343Z,25.13
2019-01-23T06:27:49.846Z,24.97
2019-01-23T06:30:24.548Z,27.03
2019-01-23T06:32:54.111Z,25.63
2019-01-23T06:35:23.550Z,26.73
2019-01-23T06:37:53.060Z,25.70
2019-01-23T06:40:22.454Z,25.50
2019-01-23T06:42:51.956Z,26.93
2019-01-23T06:45:21.644Z,24.60
2019-01-23T06:47:51.260Z,26.67
2019-01-23T06:50:21.964Z,24.57
2019-01-23T06:52:51.430Z,25.97
2019-01-23T06:55:21.089Z,25.00
2019-01-23T06:57:50.552Z,24.20
2019-01-23T07:00:22.076Z,23.63
2019-01-23T07:02:51.702Z,25.50
2019-01-23T07:05:21.468Z,23.40
2019-01-23T07:07:50.949Z,25.33
2019-01-23T07:10:22.866Z,24.20
2019-01-23T07:12:52.339Z,23.33
2019-01-23T07:15:21.714Z,25.23
2019-01-23T07:17:51.229Z,25.03
2019-01-23T07:20:22.522Z,25.63
2019-01-23T07:22:51.936Z,25.03
2019-01-23T07:25:21.851Z,25.20
2019-01-23T07:27:51.455Z,24.27
2019-01-23T07:30:26.559Z,26.30
2019-01-23T07:32:56.011Z,25.50
2019-01-23T07:35:25.602Z,27.17
2019-01-23T07:37:55.186Z,26.07
2019-01-23T07:40:24.663Z,26.73
2019-01-23T07:42:54.034Z,26.67
2019-01-23T07:45:26.022Z,26.53
2019-01-23T07:47:55.500Z,26.87
2019-01-23T07:50:25.116Z,26.30
2019-01-23T07:52:54.726Z,27.57
2019-01-23T07:55:24.334Z,27.33
2019-01-23T07:57:53.885Z,26.60
2019-01-23T08:00:31.241Z,26.53
2019-01-23T08:02:57.023Z,26.50
2019-01-23T08:05:26.911Z,28.30
2019-01-23T08:07:56.347Z,26.83
2019-01-23T08:10:25.714Z,28.53
2019-01-23T08:12:55.214Z,26.60
2019-01-23T08:15:27.366Z,27.27
2019-01-23T08:17:56.913Z,27.17
2019-01-23T08:20:28.812Z,29.73
2019-01-23T08:22:58.753Z,29.20
2019-01-23T08:25:28.237Z,29.27
2019-01-23T08:27:57.869Z,28.17
2019-01-23T08:30:27.548Z,26.70
2019-01-23T08:32:56.988Z,28.40
2019-01-23T08:35:26.794Z,26.80
2019-01-23T08:37:56.503Z,28.23
2019-01-23T08:40:26.014Z,29.57
2019-01-23T08:42:55.533Z,30.47
2019-01-23T08:45:25.081Z,27.63
2019-01-23T08:47:54.582Z,30.47
2019-01-23T08:50:32.906Z,27.80
2019-01-23T08:53:02.384Z,29.10
2019-01-23T08:55:31.836Z,29.13
2019-01-23T08:58:01.395Z,30.70
2019-01-23T09:00:30.868Z,30.57
2019-01-23T09:03:00.413Z,29.63
2019-01-23T09:05:29.906Z,30.20
2019-01-23T09:07:59.467Z,28.63
2019-01-23T09:10:30.079Z,29.50
2019-01-23T09:12:59.799Z,28.57
2019-01-23T09:15:29.287Z,30.03
2019-01-23T09:17:58.871Z,30.53
2019-01-23T09:20:28.405Z,29.57
2019-01-23T09:22:57.922Z,28.83
2019-01-23T09:25:28.059Z,29.83
2019-01-23T09:27:57.619Z,31.20
2019-01-23T09:30:39.613Z,28.83
2019-01-23T09:33:32.791Z,31.13
2019-01-23T09:36:08.033Z,27.97
2019-01-23T09:39:13.746Z,29.43
2019-01-23T09:42:03.825Z,28.70
2019-01-23T09:45:09.083Z,30.47
2019-01-23T09:47:41.691Z,28.00
2019-01-23T09:50:14.221Z,28.83
2019-01-23T09:52:55.671Z,30.87
2019-01-23T09:55:25.125Z,29.30
2019-01-23T09:57:54.821Z,30.87
2019-01-23T10:00:31.964Z,31.33
2019-01-23T10:02:59.938Z,30.23
2019-01-23T10:05:29.469Z,30.53
2019-01-23T10:07:58.955Z,31.37
2019-01-23T10:10:28.463Z,32.53
2019-01-23T10:12:57.955Z,31.93
2019-01-23T10:15:33.180Z,31.83
2019-01-23T10:18:02.745Z,32.00
2019-01-23T10:20:32.209Z,31.57
2019-01-23T10:23:01.747Z,29.43
2019-01-23T10:25:31.342Z,32.00
2019-01-23T10:28:00.935Z,30.43
2019-01-23T10:30:30.593Z,31.97
2019-01-23T10:33:00.063Z,31.77
2019-01-23T10:35:29.544Z,32.63
2019-01-23T10:37:59.155Z,30.80
2019-01-23T10:40:28.627Z,31.83
2019-01-23T10:42:58.093Z,30.70
2019-01-23T10:45:27.678Z,31.47
2019-01-23T10:47:57.453Z,29.90
2019-01-23T10:50:27.747Z,31.57
2019-01-23T10:52:57.231Z,30.47
2019-01-23T10:55:26.863Z,31.00
2019-01-23T10:57:56.446Z,31.23
2019-01-23T11:00:26.171Z,31.00
2019-01-23T11:02:55.635Z,32.93
2019-01-23T11:05:26.507Z,31.83
2019-01-23T11:07:56.097Z,34.07
2019-01-23T11:10:25.804Z,31.27
2019-01-23T11:12:55.489Z,32.17
2019-01-23T11:15:25.063Z,33.53
2019-01-23T11:17:54.901Z,32.40
2019-01-23T11:20:24.505Z,32.90
2019-01-23T11:22:53.971Z,33.87
2019-01-23T11:25:23.528Z,33.93
2019-01-23T11:27:53.032Z,32.60
2019-01-23T11:30:25.108Z,33.07
2019-01-23T11:32:54.607Z,33.90
2019-01-23T11:35:24.465Z,33.87
2019-01-23T11:37:54.125Z,32.97
2019-01-23T11:40:29.273Z,35.07
2019-01-23T11:42:58.843Z,34.83
2019-01-23T11:45:28.373Z,35.47
2019-01-23T11:47:58.041Z,33.57
2019-01-23T11:50:27.518Z,36.50
2019-01-23T11:52:56.935Z,42.30
2019-01-23T11:55:26.326Z,35.03
2019-01-23T11:57:55.895Z,34.10
2019-01-23T12:00:27.469Z,37.60
2019-01-23T12:02:56.862Z,35.50
2019-01-23T12:05:26.465Z,36.10
2019-01-23T12:07:56.121Z,36.47
2019-01-23T12:10:25.722Z,38.17
2019-01-23T12:12:55.174Z,39.30
2019-01-23T12:15:25.318Z,40.93
2019-01-23T12:17:54.785Z,40.43
2019-01-23T12:20:24.397Z,39.93
2019-01-23T12:22:54.130Z,42.13
2019-01-23T12:25:23.643Z,43.07
2019-01-23T12:27:53.163Z,44.50
2019-01-23T12:30:25.763Z,44.03
2019-01-23T12:32:55.410Z,45.37
2019-01-23T12:35:24.981Z,44.70
2019-01-23T12:37:54.510Z,41.60
2019-01-23T12:40:24.155Z,44.03
2019-01-23T12:42:53.868Z,41.63
2019-01-23T12:45:28.201Z,42.70
2019-01-23T12:47:57.712Z,42.20
2019-01-23T12:50:29.969Z,42.50
2019-01-23T12:52:59.683Z,44.23
2019-01-23T12:55:29.201Z,44.47
2019-01-23T12:57:58.783Z,42.27
2019-01-23T13:00:31.681Z,43.80
2019-01-23T13:03:01.654Z,44.53
2019-01-23T13:05:31.347Z,43.40
2019-01-23T13:08:00.815Z,40.87
2019-01-23T13:10:30.792Z,44.13
2019-01-23T13:13:00.141Z,44.27
2019-01-23T13:15:29.790Z,45.57
2019-01-23T13:17:59.544Z,45.93
2019-01-23T13:20:29.203Z,45.13
2019-01-23T13:23:00.285Z,44.17
2019-01-23T13:25:30.112Z,49.20
2019-01-23T13:28:01.271Z,44.63
2019-01-23T13:30:30.833Z,45.37
2019-01-23T13:33:00.603Z,45.17
2019-01-23T13:35:32.767Z,46.60
2019-01-23T13:38:03.069Z,46.17
2019-01-23T13:40:35.280Z,47.23
2019-01-23T13:43:06.591Z,48.40
2019-01-23T13:45:36.227Z,48.97
2019-01-23T13:48:06.869Z,49.53
2019-01-23T13:50:36.328Z,51.03
2019-01-23T13:53:05.950Z,48.40
2019-01-23T13:55:35.725Z,50.63
2019-01-23T13:58:05.556Z,50.73
2019-01-23T14:00:37.361Z,48.83
2019-01-23T14:03:07.287Z,50.83
2019-01-23T14:05:37.090Z,48.97
2019-01-23T14:08:07.542Z,50.80
2019-01-23T14:10:37.093Z,49.23
2019-01-23T14:13:08.376Z,49.03
2019-01-23T14:15:39.820Z,51.67
2019-01-23T14:18:10.148Z,50.90
2019-01-23T14:20:39.602Z,51.17
2019-01-23T14:23:09.110Z,48.20
2019-01-23T14:25:38.630Z,50.53
2019-01-23T14:28:08.180Z,50.30
2019-01-23T14:30:40.093Z,48.83
2019-01-23T14:33:09.656Z,50.00
2019-01-23T14:35:39.684Z,48.53
2019-01-23T14:38:09.203Z,48.80
2019-01-23T14:40:39.014Z,50.60
2019-01-23T14:43:08.565Z,48.60
2019-01-23T14:45:38.116Z,49.23
2019-01-23T14:48:09.258Z,47.73
2019-01-23T14:50:38.708Z,49.60
2019-01-23T14:53:08.171Z,48.40
2019-01-23T14:55:37.575Z,49.07
2019-01-23T14:58:07.112Z,50.83
2019-01-23T15:00:36.710Z,48.60
2019-01-23T15:03:06.282Z,50.00
2019-01-23T15:05:35.904Z,50.47
2019-01-23T15:08:05.524Z,49.17
2019-01-23T15:10:34.980Z,51.43
2019-01-23T15:13:05.006Z,49.53
2019-01-23T15:15:34.634Z,50.80
2019-01-23T15:18:04.390Z,51.10
2019-01-23T15:20:38.505Z,51.10
2019-01-23T15:23:08.023Z,52.27
2019-01-23T15:25:37.462Z,52.30
2019-01-23T15:28:07.136Z,50.67
2019-01-23T15:30:36.620Z,50.97
2019-01-23T15:33:06.202Z,52.90
2019-01-23T15:35:35.944Z,53.03
2019-01-23T15:38:05.619Z,52.50
2019-01-23T15:40:35.672Z,52.93
2019-01-23T15:43:05.308Z,52.33
2019-01-23T15:45:34.877Z,51.60
2019-01-23T15:48:04.584Z,50.50
2019-01-23T15:50:34.076Z,51.87
2019-01-23T15:53:03.490Z,51.47
2019-01-23T15:55:32.914Z,53.07
2019-01-23T15:58:02.314Z,52.80
2019-01-23T16:00:32.830Z,51.10
2019-01-23T16:03:02.442Z,52.83
2019-01-23T16:05:31.936Z,50.67
2019-01-23T16:08:01.406Z,52.07
2019-01-23T16:10:31.019Z,51.07
2019-01-23T16:13:00.560Z,52.33
2019-01-23T16:15:30.576Z,53.30
2019-01-23T16:18:00.073Z,52.70
2019-01-23T16:20:29.623Z,54.93
2019-01-23T16:22:59.288Z,53.07
2019-01-23T16:25:28.779Z,52.70
2019-01-23T16:27:58.438Z,53.70
2019-01-23T16:30:33.606Z,54.17
2019-01-23T16:33:03.006Z,54.57
2019-01-23T16:35:38.553Z,55.93
2019-01-23T16:38:03.898Z,57.07
2019-01-23T16:40:33.407Z,55.57
2019-01-23T16:43:02.970Z,56.07
2019-01-23T16:45:32.440Z,56.57
2019-01-23T16:48:02.114Z,57.93
2019-01-23T16:50:31.780Z,55.27
2019-01-23T16:53:01.318Z,56.70
2019-01-23T16:55:30.832Z,57.17
2019-01-23T16:58:00.346Z,55.73
2019-01-23T17:00:29.986Z,56.83
2019-01-23T17:03:00.032Z,56.27
2019-01-23T17:05:31.397Z,58.27
2019-01-23T17:08:02.606Z,58.20
2019-01-23T17:10:32.178Z,60.27
2019-01-23T17:13:01.676Z,56.80
2019-01-23T17:15:31.239Z,59.27
2019-01-23T17:18:00.784Z,59.50
2019-01-23T17:20:35.858Z,61.37
2019-01-23T17:23:05.770Z,57.63
2019-01-23T17:25:35.224Z,59.67
2019-01-23T17:28:06.550Z,60.57
2019-01-23T17:30:36.156Z,59.13
2019-01-23T17:33:05.845Z,59.83
2019-01-23T17:35:35.306Z,60.17
2019-01-23T17:38:04.918Z,62.03
2019-01-23T17:40:34.343Z,59.70
2019-01-23T17:43:03.944Z,62.07
2019-01-23T17:45:40.303Z,59.97
2019-01-23T17:48:11.579Z,58.83
2019-01-23T17:50:41.466Z,62.07
2019-01-23T17:53:10.994Z,58.80
2019-01-23T17:55:40.661Z,60.07
2019-01-23T17:58:11.292Z,58.47
2019-01-23T18:00:42.535Z,60.97
2019-01-23T18:03:12.032Z,60.20
2019-01-23T18:05:41.510Z,61.63
2019-01-23T18:08:11.059Z,58.00
2019-01-23T18:10:40.651Z,60.03
2019-01-23T18:13:10.227Z,56.13
2019-01-23T18:15:41.242Z,57.10
2019-01-23T18:18:12.611Z,57.77
2019-01-23T18:20:42.171Z,58.27
2019-01-23T18:23:11.654Z,60.03
2019-01-23T18:25:41.182Z,59.80
2019-01-23T18:28:10.706Z,59.27
2019-01-23T18:30:43.300Z,60.23
2019-01-23T18:33:15.842Z,58.77
2019-01-23T18:35:51.220Z,56.50
2019-01-23T18:38:23.799Z,58.87
2019-01-23T18:41:04.950Z,56.93
2019-01-23T18:43:49.280Z,59.00
2019-01-23T18:46:38.377Z,57.43
2019-01-23T18:49:17.011Z,59.17
2019-01-23T18:51:47.203Z,58.57
2019-01-23T18:54:16.763Z,58.57
2019-01-23T18:56:46.276Z,58.63
2019-01-23T18:59:15.752Z,58.03
2019-01-23T19:01:45.175Z,60.97
2019-01-23T19:04:14.686Z,59.53
2019-01-23T19:06:44.129Z,61.30
2019-01-23T19:09:13.553Z,60.80
2019-01-23T19:11:43.046Z,58.90
2019-01-23T19:14:12.541Z,59.63
2019-01-23T19:16:42.021Z,58.40
2019-01-23T19:21:46.843Z,61.10
2019-01-23T19:24:16.299Z,61.13
2019-01-23T19:26:45.852Z,62.43
2019-01-23T19:29:15.402Z,62.90
2019-01-23T19:31:44.937Z,61.13
2019-01-23T19:34:14.408Z,62.87
2019-01-23T19:36:44.824Z,61.93
2019-01-23T19:39:14.404Z,61.47
2019-01-23T19:41:43.908Z,61.57
2019-01-23T19:44:13.454Z,58.90
2019-01-23T19:46:42.932Z,60.97
2019-01-23T19:49:12.525Z,61.30
2019-01-23T19:51:42.066Z,59.83
2019-01-23T19:54:11.445Z,61.30
2019-01-23T19:56:41.014Z,61.77
2019-01-23T19:59:10.513Z,61.37
2019-01-23T20:01:40.102Z,63.50
2019-01-23T20:04:09.504Z,59.50
2019-01-23T20:06:38.974Z,60.40
2019-01-23T20:09:09.823Z,59.47
2019-01-23T20:11:39.420Z,58.00
2019-01-23T20:14:08.920Z,59.80
2019-01-23T20:16:38.381Z,58.13
2019-01-23T20:19:09.102Z,58.67
2019-01-23T20:21:38.671Z,58.13
2019-01-23T20:24:08.220Z,59.50
2019-01-23T20:26:37.790Z,61.53
2019-01-23T20:29:07.517Z,62.10
2019-01-23T20:31:37.015Z,59.03
2019-01-23T20:34:06.527Z,59.20
2019-01-23T20:36:36.057Z,59.73
2019-01-23T20:39:07.961Z,59.17
2019-01-23T20:41:37.495Z,58.97
2019-01-23T20:44:07.026Z,59.33
2019-01-23T20:46:36.514Z,58.57
2019-01-23T20:49:06.083Z,59.40
2019-01-23T20:51:35.579Z,60.27
2019-01-23T20:54:05.109Z,57.10
2019-01-23T20:56:34.625Z,57.43
2019-01-23T20:59:04.305Z,59.60
2019-01-23T21:01:33.817Z,59.07
2019-01-23T21:04:03.289Z,57.73
2019-01-23T21:06:32.783Z,57.03
2019-01-23T21:09:02.222Z,57.57
2019-01-23T21:11:31.720Z,60.03
2019-01-23T21:14:01.229Z,58.77
2019-01-23T21:16:30.652Z,59.10
2019-01-23T21:19:00.150Z,60.63
2019-01-23T21:21:29.633Z,59.90
2019-01-23T21:23:59.059Z,57.03
2019-01-23T21:26:28.555Z,58.40
2019-01-23T21:28:58.189Z,57.63
2019-01-23T21:31:27.543Z,60.33
2019-01-23T21:33:57.005Z,59.73
2019-01-23T21:36:26.441Z,55.97
2019-01-23T21:38:55.902Z,60.10
2019-01-23T21:41:25.305Z,59.63
2019-01-23T21:43:54.728Z,59.30
2019-01-23T21:46:24.245Z,61.07
2019-01-23T21:48:53.605Z,60.00
2019-01-23T21:51:23.107Z,58.13
2019-01-23T21:53:52.590Z,59.67
2019-01-23T21:56:22.130Z,59.20
2019-01-23T21:58:51.599Z,58.13
2019-01-23T22:01:21.033Z,58.67
2019-01-23T22:03:50.535Z,62.13
2019-01-23T22:06:20.979Z,59.13
2019-01-23T22:08:50.413Z,58.73
2019-01-23T22:11:19.821Z,57.30
2019-01-23T22:13:49.291Z,58.67
2019-01-23T22:16:18.766Z,58.67
2019-01-23T22:18:48.280Z,60.57
2019-01-23T22:21:17.705Z,59.17
2019-01-23T22:23:47.245Z,59.37
2019-01-23T22:26:18.671Z,57.33
2019-01-23T22:28:48.284Z,60.73
2019-01-23T22:31:17.869Z,57.40
2019-01-23T22:33:47.339Z,58.27
2019-01-23T22:36:16.893Z,59.70
2019-01-23T22:38:46.357Z,57.30
2019-01-23T22:41:15.885Z,58.00
2019-01-23T22:43:45.348Z,58.37
2019-01-23T22:46:14.779Z,57.33
2019-01-23T22:48:44.266Z,57.03
2019-01-23T22:51:13.747Z,58.67
2019-01-23T22:53:43.138Z,56.43
2019-01-23T22:56:12.574Z,58.47
2019-01-23T22:58:42.063Z,58.93
2019-01-23T23:01:14.645Z,58.23
2019-01-23T23:03:44.185Z,57.57
2019-01-23T23:06:13.615Z,57.13
2019-01-23T23:08:43.010Z,55.83
2019-01-23T23:11:12.507Z,55.43
2019-01-23T23:13:41.988Z,55.40
2019-01-23T23:16:11.476Z,56.30
2019-01-23T23:18:41.029Z,54.27
2019-01-23T23:21:10.534Z,53.63
2019-01-23T23:23:40.003Z,53.43
2019-01-23T23:26:09.415Z,52.90
2019-01-23T23:28:38.995Z,55.20
2019-01-23T23:31:08.499Z,53.27
2019-01-23T23:33:38.855Z,53.20
2019-01-23T23:36:08.389Z,51.00
2019-01-23T23:38:37.945Z,52.57
2019-01-23T23:41:07.491Z,52.43
2019-01-23T23:43:36.977Z,52.57
2019-01-23T23:46:06.407Z,50.43
2019-01-23T23:48:35.915Z,51.03
2019-01-23T23:51:05.427Z,48.97
2019-01-23T23:53:34.909Z,53.30
2019-01-23T23:56:04.614Z,51.50
2019-01-23T23:58:34.057Z,49.13
